Time;durP1;ratioP1;P1;durP2;ratioP2;P2;SDS_P1;SDS_P2;PMS_P1;PMS_P2;Temp;Humidity;BMP_temperature;BMP_pressure;BME280_temperature;BME280_humidity;BME280_pressure;Samples;Min_cycle;Max_cycle;Signal;HPM_P1;HPM_P2
2023/05/29 00:01:18;;;;;;;3.33;3.13;;;21.40;45.90;;;;;;5004491;28;20483;-73
2023/05/29 00:03:44;;;;;;;3.27;3.07;;;21.40;45.90;;;;;;4993865;28;20327;-73
2023/05/29 00:06:10;;;;;;;3.10;2.90;;;21.40;46.70;;;;;;4991627;28;20233;-73
2023/05/29 00:08:36;;;;;;;2.77;2.67;;;21.40;45.90;;;;;;4998494;28;20538;-73
2023/05/29 00:11:02;;;;;;;2.93;2.73;;;21.40;45.90;;;;;;5004204;28;20218;-73
2023/05/29 00:13:27;;;;;;;2.90;2.70;;;21.40;45.90;;;;;;5007415;28;20324;-73
2023/05/29 00:15:53;;;;;;;3.00;2.90;;;21.40;45.90;;;;;;4994592;28;20548;-72
2023/05/29 00:18:18;;;;;;;2.87;2.77;;;21.30;45.80;;;;;;4991813;28;20742;-73
2023/05/29 00:20:44;;;;;;;3.10;2.90;;;21.40;45.90;;;;;;4992579;28;20239;-73
2023/05/29 00:23:10;;;;;;;2.97;2.77;;;21.30;45.80;;;;;;4998724;28;21192;-73
2023/05/29 00:25:35;;;;;;;2.73;2.53;;;21.40;46.20;;;;;;4987440;28;20227;-73
2023/05/29 00:28:01;;;;;;;2.83;2.73;;;21.30;45.80;;;;;;4987841;28;20212;-73
2023/05/29 00:30:26;;;;;;;2.33;2.23;;;21.30;45.80;;;;;;5006446;28;20223;-72
2023/05/29 00:32:52;;;;;;;2.43;2.33;;;21.30;45.80;;;;;;4998597;28;20219;-73
2023/05/29 00:35:18;;;;;;;2.70;2.60;;;21.30;45.80;;;;;;5003428;28;20291;-73
2023/05/29 00:37:43;;;;;;;2.83;2.70;;;21.30;45.80;;;;;;4996948;28;20219;-73
2023/05/29 00:40:11;;;;;;;3.40;3.20;;;21.30;45.80;;;;;;4987851;28;20366;-73
2023/05/29 00:42:37;;;;;;;2.63;2.53;;;21.30;45.80;;;;;;4990277;28;20571;-73
2023/05/29 00:45:02;;;;;;;2.83;2.63;;;21.30;45.90;;;;;;4992795;28;20461;-72
2023/05/29 00:47:29;;;;;;;2.40;2.30;;;21.30;45.80;;;;;;4980948;28;20231;-73
2023/05/29 00:49:56;;;;;;;2.63;2.50;;;21.30;45.80;;;;;;5000701;28;20257;-72
2023/05/29 00:52:22;;;;;;;2.40;2.30;;;21.30;45.80;;;;;;5001014;28;20477;-72
2023/05/29 00:54:48;;;;;;;2.40;2.30;;;21.30;45.80;;;;;;5002062;28;20539;-72
2023/05/29 00:57:16;;;;;;;2.70;2.57;;;21.30;45.80;;;;;;5006822;28;20471;-73
2023/05/29 00:59:43;;;;;;;2.87;2.77;;;21.30;45.80;;;;;;4993545;28;20242;-73
2023/05/29 01:02:09;;;;;;;2.63;2.53;;;21.30;45.80;;;;;;4988208;28;20485;-74
2023/05/29 01:04:35;;;;;;;2.23;2.13;;;21.30;45.80;;;;;;4989523;28;21008;-72
2023/05/29 01:07:02;;;;;;;2.60;2.40;;;21.30;45.80;;;;;;4999044;28;20743;-73
2023/05/29 01:09:29;;;;;;;2.23;2.13;;;21.30;45.80;;;;;;4995103;28;20455;-72
2023/05/29 01:12:08;;;;;;;2.50;2.30;;;21.30;45.90;;;;;;4995312;28;21102;-72
2023/05/29 01:15:13;;;;;;;2.10;2.00;;;21.30;45.80;;;;;;4995995;28;20472;-73
2023/05/29 01:17:57;;;;;;;2.70;2.50;;;21.30;45.80;;;;;;4990489;28;20597;-73
2023/05/29 01:20:30;;;;;;;2.20;2.10;;;21.30;45.80;;;;;;4993505;28;20481;-73
2023/05/29 01:23:17;;;;;;;2.43;2.30;;;21.30;45.80;;;;;;4995571;28;20824;-72
2023/05/29 01:26:12;;;;;;;3.13;2.93;;;21.30;45.80;;;;;;4995263;28;21020;-72
2023/05/29 01:28:42;;;;;;;2.70;2.60;;;21.30;45.80;;;;;;4988426;28;20456;-73
2023/05/29 01:31:09;;;;;;;2.53;2.43;;;21.30;45.80;;;;;;4995224;28;20646;-72
2023/05/29 01:33:40;;;;;;;2.27;2.17;;;21.30;45.80;;;;;;5027268;28;20939;-72
2023/05/29 01:36:08;;;;;;;2.63;2.10;;;21.30;45.80;;;;;;4993764;28;20461;-73
2023/05/29 01:38:35;;;;;;;2.40;2.30;;;21.30;45.80;;;;;;5001472;28;20877;-73
2023/05/29 01:41:01;;;;;;;2.20;2.10;;;21.30;45.80;;;;;;4996498;28;21022;-72
2023/05/29 01:43:27;;;;;;;2.20;2.10;;;21.30;45.80;;;;;;5013612;28;20487;-72
2023/05/29 01:45:53;;;;;;;2.40;2.30;;;21.30;45.90;;;;;;4996828;28;20803;-72
2023/05/29 01:48:18;;;;;;;2.13;2.03;;;21.30;45.80;;;;;;4996704;28;20239;-73
2023/05/29 01:50:46;;;;;;;2.27;2.17;;;21.30;45.80;;;;;;5001586;28;20552;-73
2023/05/29 01:53:11;;;;;;;2.60;2.40;;;21.30;45.80;;;;;;4984750;28;20308;-72
2023/05/29 01:55:37;;;;;;;2.20;2.10;;;21.30;45.80;;;;;;4987578;28;20534;-72
2023/05/29 01:58:03;;;;;;;2.40;2.30;;;21.30;45.80;;;;;;5006277;28;20308;-73
2023/05/29 02:00:30;;;;;;;2.20;2.10;;;21.30;45.80;;;;;;4993271;28;20710;-73
2023/05/29 02:02:55;;;;;;;2.37;2.27;;;21.20;45.70;;;;;;4999607;28;20940;-73
2023/05/29 02:05:21;;;;;;;2.50;2.30;;;21.30;45.80;;;;;;5004063;28;20521;-73
2023/05/29 02:07:47;;;;;;;2.70;2.50;;;21.20;45.70;;;;;;4994356;28;20314;-73
2023/05/29 02:10:12;;;;;;;2.50;2.40;;;21.30;45.80;;;;;;4984202;28;20239;-73
2023/05/29 02:12:38;;;;;;;2.23;2.13;;;21.30;45.80;;;;;;4992708;28;20230;-73
2023/05/29 02:15:04;;;;;;;2.07;1.97;;;21.20;45.80;;;;;;4983937;28;20283;-73
2023/05/29 02:17:30;;;;;;;1.90;1.80;;;21.30;45.90;;;;;;5007306;28;20578;-72
2023/05/29 02:19:56;;;;;;;2.10;2.00;;;21.20;45.70;;;;;;5002424;28;20511;-73
2023/05/29 02:22:22;;;;;;;2.00;1.90;;;21.20;45.80;;;;;;5007391;28;21444;-72
2023/05/29 02:24:47;;;;;;;2.33;2.23;;;21.20;45.70;;;;;;5004728;28;20226;-73
2023/05/29 02:27:13;;;;;;;2.33;2.23;;;21.20;45.70;;;;;;4994242;28;20235;-73
2023/05/29 02:29:38;;;;;;;2.00;1.90;;;21.20;45.70;;;;;;4993817;28;20240;-73
2023/05/29 02:32:04;;;;;;;2.20;2.10;;;21.20;45.70;;;;;;4990864;28;20309;-73
2023/05/29 02:34:30;;;;;;;1.97;1.87;;;21.20;45.70;;;;;;4987735;28;20231;-73
2023/05/29 02:36:56;;;;;;;2.17;2.07;;;21.20;45.70;;;;;;4997654;28;21217;-72
2023/05/29 02:39:22;;;;;;;1.80;1.70;;;21.20;45.70;;;;;;4984861;28;20224;-73
2023/05/29 02:41:47;;;;;;;2.03;1.93;;;21.20;45.80;;;;;;5001550;28;20456;-73
2023/05/29 02:44:13;;;;;;;2.07;1.97;;;21.20;45.70;;;;;;4996448;28;20219;-72
2023/05/29 02:46:38;;;;;;;1.97;1.87;;;21.20;45.70;;;;;;4996752;28;20641;-73
2023/05/29 02:49:04;;;;;;;1.90;1.80;;;21.20;45.70;;;;;;4995245;28;20302;-73
2023/05/29 02:51:32;;;;;;;2.13;2.00;;;21.20;45.70;;;;;;4998093;28;20299;-73
2023/05/29 02:53:57;;;;;;;2.20;2.10;;;21.20;45.70;;;;;;5000126;28;20230;-73
2023/05/29 02:56:23;;;;;;;2.10;2.00;;;21.20;45.70;;;;;;5005043;28;20539;-73
2023/05/29 02:58:50;;;;;;;1.87;1.77;;;21.20;45.70;;;;;;4993766;28;20958;-73
2023/05/29 03:01:15;;;;;;;2.10;2.00;;;21.20;45.70;;;;;;4983845;28;20310;-73
2023/05/29 03:03:41;;;;;;;2.40;2.20;;;21.20;45.70;;;;;;5000248;28;20459;-73
2023/05/29 03:06:07;;;;;;;2.30;2.10;;;21.20;45.70;;;;;;4989030;28;20215;-73
2023/05/29 03:08:34;;;;;;;2.23;2.13;;;21.20;45.70;;;;;;4999117;28;20217;-73
2023/05/29 03:10:59;;;;;;;2.20;2.10;;;21.20;45.70;;;;;;4986601;28;21946;-73
2023/05/29 03:13:25;;;;;;;2.17;2.07;;;21.20;45.70;;;;;;4995839;28;20447;-73
2023/05/29 03:15:51;;;;;;;1.90;1.80;;;21.20;45.70;;;;;;4993801;28;20227;-73
2023/05/29 03:18:16;;;;;;;2.00;1.90;;;21.20;45.70;;;;;;4992380;28;20361;-73
2023/05/29 03:20:42;;;;;;;2.23;2.13;;;21.20;45.70;;;;;;4998498;28;20303;-73
2023/05/29 03:23:07;;;;;;;2.20;2.10;;;21.20;45.70;;;;;;4988092;28;20250;-73
2023/05/29 03:25:33;;;;;;;1.90;1.80;;;21.20;45.70;;;;;;5003821;28;20211;-72
2023/05/29 03:28:01;;;;;;;2.20;2.10;;;21.20;45.70;;;;;;5000002;28;21775;-72
2023/05/29 03:30:26;;;;;;;1.70;1.60;;;21.20;45.70;;;;;;4998595;28;21701;-73
2023/05/29 03:32:52;;;;;;;1.90;1.80;;;21.20;45.70;;;;;;4990439;28;20460;-73
2023/05/29 03:35:17;;;;;;;2.00;1.90;;;21.20;45.80;;;;;;4996927;28;20218;-73
2023/05/29 03:37:43;;;;;;;2.27;2.00;;;21.20;45.70;;;;;;4993880;28;20693;-73
2023/05/29 03:40:09;;;;;;;1.90;1.80;;;21.20;45.70;;;;;;5000404;28;20714;-72
2023/05/29 03:42:34;;;;;;;2.07;1.83;;;21.20;45.70;;;;;;4999396;28;20700;-73
2023/05/29 03:45:00;;;;;;;1.70;1.60;;;21.20;45.70;;;;;;5000199;28;20495;-73
2023/05/29 03:47:26;;;;;;;1.97;1.87;;;21.20;45.70;;;;;;5023327;28;20648;-73
2023/05/29 03:49:51;;;;;;;2.07;1.97;;;21.20;45.70;;;;;;4992295;28;20247;-73
2023/05/29 03:52:17;;;;;;;2.13;2.03;;;21.20;45.70;;;;;;5000126;28;20827;-73
2023/05/29 03:54:44;;;;;;;2.00;1.90;;;21.20;45.70;;;;;;4992623;28;20218;-73
2023/05/29 03:57:10;;;;;;;1.80;1.70;;;21.20;45.70;;;;;;4998498;28;20317;-73
2023/05/29 03:59:36;;;;;;;2.27;2.17;;;21.20;45.70;;;;;;5001888;28;20477;-73
2023/05/29 04:02:02;;;;;;;1.97;1.87;;;21.20;45.70;;;;;;5007842;28;20319;-73
2023/05/29 04:04:28;;;;;;;1.90;1.80;;;21.20;45.80;;;;;;4999153;28;20464;-72
2023/05/29 04:06:53;;;;;;;2.10;2.00;;;21.20;45.70;;;;;;5002852;28;20223;-72
2023/05/29 04:09:19;;;;;;;2.10;2.00;;;21.20;45.70;;;;;;4998238;28;21286;-73
2023/05/29 04:11:46;;;;;;;1.70;1.60;;;21.20;45.70;;;;;;5005133;28;20277;-73
2023/05/29 04:14:11;;;;;;;1.70;1.60;;;21.20;45.70;;;;;;4998196;28;20882;-73
2023/05/29 04:16:37;;;;;;;1.93;1.70;;;21.20;45.70;;;;;;4987190;28;20477;-73
2023/05/29 04:19:02;;;;;;;1.87;1.77;;;21.20;45.70;;;;;;5021818;28;20273;-73
2023/05/29 04:21:28;;;;;;;1.80;1.70;;;21.20;45.70;;;;;;5000548;28;20376;-72
2023/05/29 04:23:54;;;;;;;1.80;1.70;;;21.20;45.70;;;;;;5002685;28;22081;-73
2023/05/29 04:26:24;;;;;;;1.90;1.80;;;21.20;45.70;;;;;;5002278;28;20224;-73
2023/05/29 04:28:52;;;;;;;1.97;1.80;;;21.20;45.70;;;;;;5005634;28;20231;-73
2023/05/29 04:31:18;;;;;;;2.53;2.33;;;21.20;45.70;;;;;;5006464;28;20459;-73
2023/05/29 04:33:45;;;;;;;1.60;1.50;;;21.20;45.70;;;;;;4996515;28;21337;-73
2023/05/29 04:36:10;;;;;;;1.80;1.70;;;21.20;45.70;;;;;;5001254;28;20222;-73
2023/05/29 04:38:36;;;;;;;1.80;1.70;;;21.20;45.70;;;;;;5003924;28;20463;-73
2023/05/29 04:41:02;;;;;;;1.80;1.70;;;21.20;45.70;;;;;;5000183;28;20327;-73
2023/05/29 04:43:28;;;;;;;1.80;1.70;;;21.20;45.70;;;;;;5003341;28;20560;-73
2023/05/29 04:45:53;;;;;;;1.70;1.60;;;21.20;45.70;;;;;;4990955;28;20678;-73
2023/05/29 04:48:19;;;;;;;2.03;1.93;;;21.20;45.70;;;;;;4989441;28;20681;-73
2023/05/29 04:50:45;;;;;;;1.60;1.50;;;21.20;45.70;;;;;;4996449;28;20315;-73
2023/05/29 04:53:11;;;;;;;1.70;1.60;;;21.20;45.80;;;;;;4990987;28;20850;-73
2023/05/29 04:55:36;;;;;;;1.73;1.60;;;21.20;45.70;;;;;;5001654;28;20620;-73
2023/05/29 04:58:02;;;;;;;1.57;1.40;;;21.20;45.70;;;;;;4994471;28;20680;-72
2023/05/29 05:00:27;;;;;;;2.03;1.93;;;21.20;45.70;;;;;;5004829;28;20362;-72
2023/05/29 05:02:53;;;;;;;1.87;1.67;;;21.20;45.70;;;;;;5009225;28;20226;-72
2023/05/29 05:05:19;;;;;;;1.50;1.40;;;21.20;45.70;;;;;;5004964;28;20219;-72
2023/05/29 05:07:45;;;;;;;1.60;1.50;;;21.20;45.70;;;;;;5017918;28;20682;-72
2023/05/29 05:10:13;;;;;;;1.90;1.80;;;21.20;45.70;;;;;;5010306;28;20476;-72
2023/05/29 05:12:39;;;;;;;1.83;1.73;;;21.20;45.70;;;;;;5012977;28;20237;-72
2023/05/29 05:15:05;;;;;;;1.60;1.50;;;21.20;45.70;;;;;;4999126;28;20471;-72
2023/05/29 05:17:31;;;;;;;3.17;1.77;;;21.20;45.70;;;;;;5003244;28;20278;-72
2023/05/29 05:19:56;;;;;;;1.40;1.30;;;21.20;45.70;;;;;;4994910;28;20473;-72
2023/05/29 05:22:22;;;;;;;1.70;1.60;;;21.20;45.70;;;;;;5008414;28;20231;-72
2023/05/29 05:24:48;;;;;;;1.40;1.30;;;21.20;45.70;;;;;;4996946;28;20223;-72
2023/05/29 05:27:13;;;;;;;1.80;1.70;;;21.20;45.70;;;;;;4998271;28;20256;-72
2023/05/29 05:29:39;;;;;;;1.60;1.50;;;21.20;45.70;;;;;;5015874;28;20311;-73
2023/05/29 05:32:05;;;;;;;1.53;1.43;;;21.20;45.70;;;;;;5001722;28;20223;-72
2023/05/29 05:34:31;;;;;;;1.60;1.50;;;21.20;45.70;;;;;;5015526;28;20689;-72
2023/05/29 05:36:56;;;;;;;1.53;1.43;;;21.20;45.70;;;;;;5000394;28;20583;-72
2023/05/29 05:39:22;;;;;;;2.90;1.50;;;21.20;45.70;;;;;;5003349;28;20259;-72
2023/05/29 05:41:48;;;;;;;1.50;1.40;;;21.20;45.70;;;;;;5009694;28;20238;-72
2023/05/29 05:44:13;;;;;;;2.20;1.97;;;21.20;45.70;;;;;;5003827;28;20288;-72
2023/05/29 05:46:39;;;;;;;1.83;1.73;;;21.20;45.70;;;;;;4998338;28;20690;-72
2023/05/29 05:49:04;;;;;;;1.70;1.60;;;21.20;45.70;;;;;;5008395;28;20261;-73
2023/05/29 05:51:30;;;;;;;1.40;1.30;;;21.20;45.70;;;;;;5000990;28;20212;-74
2023/05/29 05:53:56;;;;;;;1.80;1.60;;;21.20;45.70;;;;;;4997412;28;20277;-75
2023/05/29 05:56:22;;;;;;;1.50;1.40;;;21.20;45.70;;;;;;4996931;28;20236;-75
2023/05/29 05:58:49;;;;;;;1.67;1.37;;;21.20;45.70;;;;;;5005670;28;20825;-75
2023/05/29 06:01:15;;;;;;;2.07;1.70;;;21.30;45.80;;;;;;5029682;28;20689;-73
2023/05/29 06:03:40;;;;;;;1.50;1.40;;;21.30;45.80;;;;;;5008023;28;20464;-72
2023/05/29 06:06:07;;;;;;;1.67;1.57;;;21.30;45.80;;;;;;4999491;28;20219;-72
2023/05/29 06:08:32;;;;;;;1.60;1.50;;;21.30;45.80;;;;;;5008231;28;20796;-72
2023/05/29 06:10:58;;;;;;;1.70;1.57;;;21.30;45.80;;;;;;5009728;28;20453;-72
2023/05/29 06:13:23;;;;;;;1.40;1.30;;;21.30;45.80;;;;;;5011487;28;20222;-72
2023/05/29 06:15:49;;;;;;;1.40;1.30;;;21.30;45.80;;;;;;5008536;28;20242;-72
2023/05/29 06:18:15;;;;;;;1.70;1.60;;;21.30;45.80;;;;;;4999474;28;20223;-72
2023/05/29 06:20:41;;;;;;;1.57;1.47;;;21.30;45.80;;;;;;5041232;28;21051;-72
2023/05/29 06:23:06;;;;;;;1.60;1.50;;;21.30;45.80;;;;;;5009500;28;20293;-72
2023/05/29 06:25:33;;;;;;;5.80;1.60;;;21.30;45.80;;;;;;5012498;28;20270;-72
2023/05/29 06:28:01;;;;;;;1.90;1.50;;;21.30;45.80;;;;;;5004262;28;20235;-72
2023/05/29 06:30:27;;;;;;;1.77;1.67;;;21.30;45.80;;;;;;5014239;28;20992;-72
2023/05/29 06:32:53;;;;;;;1.67;1.50;;;21.30;45.80;;;;;;5014773;28;20460;-72
2023/05/29 06:35:18;;;;;;;2.47;1.67;;;21.40;46.00;;;;;;5004618;28;20226;-72
2023/05/29 06:37:45;;;;;;;1.60;1.50;;;21.40;45.90;;;;;;5009253;28;20226;-73
2023/05/29 06:40:15;;;;;;;1.83;1.70;;;21.30;45.80;;;;;;4996169;28;20219;-71
2023/05/29 06:42:44;;;;;;;2.27;2.07;;;21.30;45.80;;;;;;5003584;28;20988;-72
2023/05/29 06:45:11;;;;;;;2.70;1.50;;;21.30;45.80;;;;;;5003861;28;20473;-75
2023/05/29 06:47:37;;;;;;;1.47;1.37;;;21.30;45.80;;;;;;5006252;28;20468;-72
2023/05/29 06:50:02;;;;;;;1.60;1.50;;;21.30;45.80;;;;;;5004657;28;20502;-72
2023/05/29 06:52:28;;;;;;;1.70;1.60;;;21.30;45.80;;;;;;5037761;28;20225;-72
2023/05/29 06:54:54;;;;;;;2.27;1.80;;;21.30;45.80;;;;;;4999398;28;20281;-72
2023/05/29 06:57:19;;;;;;;5.40;1.97;;;21.30;45.80;;;;;;5003192;28;20259;-72
2023/05/29 06:59:45;;;;;;;3.63;1.60;;;21.30;45.60;;;;;;5014687;28;20265;-71
2023/05/29 07:02:10;;;;;;;2.00;1.80;;;21.30;45.50;;;;;;5001446;28;20237;-72
2023/05/29 07:04:39;;;;;;;2.20;2.00;;;21.30;45.30;;;;;;5000397;28;20276;-72
2023/05/29 07:07:05;;;;;;;1.40;1.30;;;21.30;45.30;;;;;;5001474;28;20255;-71
2023/05/29 07:09:30;;;;;;;2.30;1.60;;;21.40;45.40;;;;;;5004787;28;20492;-71
2023/05/29 07:11:56;;;;;;;1.57;1.47;;;21.30;45.30;;;;;;5001828;28;20306;-72
2023/05/29 07:14:21;;;;;;;3.73;1.77;;;21.30;45.20;;;;;;4996039;28;20231;-72
2023/05/29 07:16:47;;;;;;;1.40;1.30;;;21.30;45.10;;;;;;5001786;28;20313;-71
2023/05/29 07:19:13;;;;;;;2.00;1.47;;;21.30;45.00;;;;;;4993417;28;20230;-71
2023/05/29 07:21:39;;;;;;;1.37;1.27;;;21.40;45.20;;;;;;5002632;28;20245;-72
2023/05/29 07:24:05;;;;;;;1.80;1.70;;;21.30;45.90;;;;;;5002657;28;20468;-73
2023/05/29 07:26:31;;;;;;;1.77;1.50;;;21.30;45.10;;;;;;5001239;28;20244;-73
2023/05/29 07:28:57;;;;;;;2.40;1.30;;;21.30;45.10;;;;;;5022906;28;20456;-73
2023/05/29 07:31:23;;;;;;;1.50;1.40;;;21.30;45.20;;;;;;5010975;28;20830;-72
2023/05/29 07:33:48;;;;;;;2.00;1.20;;;21.30;45.20;;;;;;5005204;28;20215;-74
2023/05/29 07:36:17;;;;;;;1.60;1.50;;;21.30;45.20;;;;;;4999735;28;20223;-74
2023/05/29 07:38:43;;;;;;;1.30;1.20;;;21.30;45.20;;;;;;5010578;28;20231;-72
2023/05/29 07:41:09;;;;;;;1.30;1.20;;;21.30;45.30;;;;;;5011002;28;20479;-77
2023/05/29 07:43:35;;;;;;;3.23;1.53;;;21.30;45.20;;;;;;5006735;28;20229;-73
2023/05/29 07:46:00;;;;;;;1.63;1.27;;;21.40;45.40;;;;;;5000262;28;20452;-70
2023/05/29 07:48:26;;;;;;;2.90;1.90;;;21.40;45.50;;;;;;5011263;28;20543;-72
2023/05/29 07:50:52;;;;;;;1.90;1.43;;;21.30;45.40;;;;;;5006095;28;20223;-73
2023/05/29 07:53:17;;;;;;;1.20;1.00;;;21.40;45.50;;;;;;5009650;28;20233;-73
2023/05/29 07:55:43;;;;;;;1.50;1.40;;;21.40;45.50;;;;;;5001022;28;22866;-77
2023/05/29 07:58:11;;;;;;;6.00;1.80;;;21.30;45.30;;;;;;5007200;28;20357;-73
2023/05/29 08:00:37;;;;;;;1.97;1.83;;;21.30;45.30;;;;;;5022253;28;20223;-73
2023/05/29 08:03:03;;;;;;;1.60;1.50;;;21.30;45.20;;;;;;5034687;28;20478;-73
2023/05/29 08:05:29;;;;;;;1.80;1.50;;;21.30;45.20;;;;;;5006173;28;20906;-73
2023/05/29 08:07:55;;;;;;;2.03;1.30;;;21.40;45.30;;;;;;5021320;28;20219;-73
2023/05/29 08:10:20;;;;;;;1.67;1.40;;;21.30;45.10;;;;;;5009949;28;20552;-73
2023/05/29 08:12:46;;;;;;;2.20;1.27;;;21.30;45.10;;;;;;4996238;28;20277;-73
2023/05/29 08:15:12;;;;;;;1.67;1.40;;;21.40;45.20;;;;;;5007344;28;20219;-73
2023/05/29 08:17:37;;;;;;;2.03;1.50;;;21.30;45.20;;;;;;5006739;28;20706;-73
2023/05/29 08:20:05;;;;;;;2.00;1.80;;;21.40;45.10;;;;;;5015051;28;20223;-73
2023/05/29 08:22:33;;;;;;;2.20;2.00;;;21.30;45.00;;;;;;5004286;28;20590;-73
2023/05/29 08:24:59;;;;;;;2.60;1.47;;;21.30;45.00;;;;;;4998325;28;20466;-72
2023/05/29 08:27:25;;;;;;;1.87;1.57;;;21.30;45.00;;;;;;5006416;28;20790;-73
2023/05/29 08:29:50;;;;;;;1.80;1.33;;;21.30;45.00;;;;;;5004748;28;20276;-73
2023/05/29 08:32:16;;;;;;;2.37;1.60;;;21.30;45.10;;;;;;5010438;28;22654;-72
2023/05/29 08:34:41;;;;;;;3.57;1.70;;;21.40;45.20;;;;;;5019333;28;20760;-72
2023/05/29 08:37:07;;;;;;;6.03;1.33;;;21.40;45.10;;;;;;5015198;28;20223;-73
2023/05/29 08:39:33;;;;;;;2.20;1.60;;;21.30;45.00;;;;;;5012319;28;20226;-72
2023/05/29 08:42:07;;;;;;;3.30;1.17;;;21.30;45.00;;;;;;5015925;28;20298;-72
2023/05/29 08:44:33;;;;;;;2.17;1.60;;;21.30;45.00;;;;;;5021036;28;20307;-72
2023/05/29 08:47:03;;;;;;;2.20;1.60;;;21.30;45.00;;;;;;4999733;28;21039;-72
2023/05/29 08:49:34;;;;;;;1.30;1.20;;;21.30;45.00;;;;;;5010124;28;20472;-72
2023/05/29 08:52:07;;;;;;;2.00;1.53;;;21.30;45.00;;;;;;5003470;28;20457;-72
2023/05/29 08:54:33;;;;;;;1.63;1.40;;;21.30;45.00;;;;;;5007675;28;21621;-72
2023/05/29 08:57:01;;;;;;;1.70;1.60;;;21.30;44.90;;;;;;4997838;28;20473;-72
2023/05/29 08:59:29;;;;;;;1.80;1.60;;;21.30;44.90;;;;;;5016539;28;20317;-72
2023/05/29 09:01:55;;;;;;;3.43;1.63;;;21.30;44.80;;;;;;5007775;28;20485;-72
2023/05/29 09:04:20;;;;;;;3.37;1.30;;;21.30;44.80;;;;;;5008749;28;20465;-72
2023/05/29 09:06:46;;;;;;;2.87;1.47;;;21.30;44.70;;;;;;5015907;28;20231;-73
2023/05/29 09:09:12;;;;;;;4.03;1.57;;;21.30;44.80;;;;;;5007802;28;20234;-72
2023/05/29 09:11:38;;;;;;;4.30;1.80;;;21.30;44.70;;;;;;5011231;28;20464;-73
2023/05/29 09:14:03;;;;;;;1.90;1.50;;;21.30;44.70;;;;;;4995483;28;20223;-72
2023/05/29 09:16:29;;;;;;;1.70;1.60;;;21.30;44.60;;;;;;4995606;28;20238;-73
2023/05/29 09:19:07;;;;;;;1.90;1.50;;;21.30;44.60;;;;;;4991061;28;20226;-72
2023/05/29 09:21:36;;;;;;;3.90;1.90;;;21.30;44.60;;;;;;5011080;28;20234;-73
2023/05/29 09:24:05;;;;;;;2.10;1.90;;;21.30;44.60;;;;;;5018271;28;20468;-73
2023/05/29 09:26:31;;;;;;;3.70;1.70;;;21.30;44.60;;;;;;5006357;28;20465;-72
2023/05/29 09:28:57;;;;;;;3.00;1.70;;;21.30;44.50;;;;;;5023812;28;21433;-73
2023/05/29 09:31:24;;;;;;;3.93;1.77;;;21.30;44.50;;;;;;5000134;28;20468;-73
2023/05/29 09:33:50;;;;;;;4.57;1.83;;;21.30;44.50;;;;;;4997524;28;20476;-74
2023/05/29 09:36:22;;;;;;;1.47;1.37;;;21.30;44.40;;;;;;5010735;28;20785;-74
2023/05/29 09:38:48;;;;;;;1.70;1.53;;;21.30;44.40;;;;;;5005047;28;20461;-74
2023/05/29 09:41:20;;;;;;;2.60;1.57;;;21.30;44.30;;;;;;5019620;28;20451;-73
2023/05/29 09:43:46;;;;;;;1.57;1.47;;;21.30;44.40;;;;;;5008194;28;20490;-73
2023/05/29 09:46:15;;;;;;;2.27;2.07;;;21.30;44.30;;;;;;5018558;28;20917;-73
2023/05/29 09:48:42;;;;;;;1.50;1.33;;;21.30;44.50;;;;;;5012306;28;20476;-74
2023/05/29 09:51:19;;;;;;;1.80;1.70;;;21.30;44.30;;;;;;5016714;28;20483;-73
2023/05/29 09:53:46;;;;;;;3.33;1.80;;;21.30;44.20;;;;;;5010928;28;20816;-74
2023/05/29 09:56:15;;;;;;;3.50;1.47;;;21.30;44.20;;;;;;5013030;28;20485;-73
2023/05/29 09:58:45;;;;;;;1.90;1.40;;;21.30;44.20;;;;;;5009204;28;20501;-73
2023/05/29 10:01:18;;;;;;;4.33;1.70;;;21.30;44.20;;;;;;5018008;28;20476;-73
2023/05/29 10:03:43;;;;;;;3.20;1.80;;;21.30;44.20;;;;;;5002319;28;20549;-73
2023/05/29 10:06:18;;;;;;;4.97;1.33;;;21.30;44.10;;;;;;5001485;28;20547;-73
2023/05/29 10:08:50;;;;;;;3.03;1.80;;;21.30;44.10;;;;;;5038742;28;20223;-73
2023/05/29 10:11:26;;;;;;;3.20;1.60;;;21.30;44.10;;;;;;5019998;28;20426;-73
2023/05/29 10:13:52;;;;;;;2.83;1.60;;;21.30;44.10;;;;;;5007644;28;21437;-73
2023/05/29 10:16:21;;;;;;;1.50;1.40;;;21.30;44.10;;;;;;5011843;28;20515;-73
2023/05/29 10:18:54;;;;;;;1.67;1.47;;;21.30;44.10;;;;;;5008687;28;20473;-72
2023/05/29 10:21:21;;;;;;;2.90;1.70;;;21.30;44.10;;;;;;5015738;28;20460;-72
2023/05/29 10:23:49;;;;;;;1.70;1.47;;;21.30;44.00;;;;;;5001565;28;20453;-72
2023/05/29 10:26:29;;;;;;;2.60;1.60;;;21.30;44.00;;;;;;5011816;28;20481;-71
2023/05/29 10:29:17;;;;;;;3.00;1.70;;;21.30;44.00;;;;;;5010609;28;20455;-72
2023/05/29 10:32:00;;;;;;;2.00;1.80;;;21.30;44.00;;;;;;5016297;28;20455;-72
2023/05/29 10:34:59;;;;;;;6.73;1.53;;;21.30;43.80;;;;;;5000494;28;20590;-70
2023/05/29 10:37:49;;;;;;;2.70;1.77;;;21.30;43.70;;;;;;5003105;28;20452;-72
2023/05/29 10:40:16;;;;;;;2.37;1.60;;;21.30;43.60;;;;;;5001085;28;21597;-72
2023/05/29 10:42:47;;;;;;;1.60;1.40;;;21.30;43.80;;;;;;5005933;28;20564;-72
2023/05/29 10:45:28;;;;;;;1.77;1.43;;;21.30;43.70;;;;;;5022717;28;20862;-72
2023/05/29 10:47:53;;;;;;;4.70;2.37;;;21.30;43.80;;;;;;5018113;28;20490;-72
2023/05/29 10:50:35;;;;;;;2.50;1.50;;;21.30;43.90;;;;;;5012793;28;20987;-71
2023/05/29 10:53:01;;;;;;;3.60;1.70;;;21.30;43.90;;;;;;5006942;28;20274;-71
2023/05/29 10:55:37;;;;;;;2.90;1.40;;;21.30;43.90;;;;;;5003443;28;20473;-72
2023/05/29 10:58:10;;;;;;;1.70;1.40;;;21.30;43.90;;;;;;5009021;28;20230;-72
2023/05/29 11:00:44;;;;;;;2.73;1.43;;;21.30;43.90;;;;;;5008907;28;20434;-71
2023/05/29 11:03:12;;;;;;;2.80;1.50;;;21.30;43.90;;;;;;5009062;28;20486;-70
2023/05/29 11:05:56;;;;;;;2.20;1.43;;;21.30;44.00;;;;;;4999963;28;20559;-70
2023/05/29 11:08:41;;;;;;;2.60;1.60;;;21.30;44.00;;;;;;5011571;28;20459;-70
2023/05/29 11:11:06;;;;;;;2.17;1.77;;;21.30;44.00;;;;;;5009416;28;20563;-70
2023/05/29 11:13:34;;;;;;;2.17;1.70;;;21.30;44.00;;;;;;5014261;28;20496;-71
2023/05/29 11:16:25;;;;;;;3.73;1.60;;;21.40;44.10;;;;;;5001920;28;20226;-71
2023/05/29 11:18:52;;;;;;;2.13;1.60;;;21.40;44.10;;;;;;5003412;28;20468;-71
2023/05/29 11:21:49;;;;;;;2.80;1.70;;;21.30;44.00;;;;;;4995142;28;20487;-70
2023/05/29 11:24:22;;;;;;;1.50;1.40;;;21.40;44.10;;;;;;5000125;28;21225;-71
2023/05/29 11:26:48;;;;;;;6.80;2.87;;;21.30;44.00;;;;;;5013139;28;22249;-71
2023/05/29 11:29:14;;;;;;;2.20;1.30;;;21.30;44.10;;;;;;5005019;28;20583;-73
2023/05/29 11:31:40;;;;;;;2.60;1.67;;;21.30;44.10;;;;;;5002464;28;20586;-72
2023/05/29 11:34:09;;;;;;;2.33;1.80;;;21.30;44.10;;;;;;5009037;28;20227;-74
2023/05/29 11:36:36;;;;;;;1.90;1.50;;;21.40;44.20;;;;;;5010989;28;20226;-74
2023/05/29 11:39:03;;;;;;;1.90;1.70;;;21.40;44.10;;;;;;5000007;28;20557;-73
2023/05/29 11:41:31;;;;;;;2.00;1.67;;;21.40;44.00;;;;;;4995904;28;20587;-73
2023/05/29 11:43:58;;;;;;;1.60;1.50;;;21.40;44.00;;;;;;4995429;28;21559;-74
2023/05/29 11:46:26;;;;;;;1.50;1.40;;;21.40;44.00;;;;;;4997649;28;20462;-72
2023/05/29 11:48:51;;;;;;;1.87;1.50;;;21.40;43.90;;;;;;5002944;28;20460;-73
2023/05/29 11:51:17;;;;;;;4.30;1.93;;;21.40;43.80;;;;;;5011890;28;20459;-73
2023/05/29 11:53:46;;;;;;;3.70;1.57;;;21.40;43.80;;;;;;4997009;28;20261;-72
2023/05/29 11:56:12;;;;;;;1.77;1.67;;;21.50;43.80;;;;;;4998558;28;20231;-73
2023/05/29 11:58:38;;;;;;;1.83;1.47;;;21.50;43.90;;;;;;5000060;28;20815;-73
2023/05/29 12:01:05;;;;;;;4.20;1.80;;;21.50;43.80;;;;;;4994089;28;20730;-73
2023/05/29 12:03:37;;;;;;;1.43;1.33;;;21.50;43.80;;;;;;5006295;28;20468;-73
2023/05/29 12:06:03;;;;;;;2.10;1.70;;;21.50;43.80;;;;;;5008413;28;20556;-72
2023/05/29 12:08:28;;;;;;;1.83;1.53;;;21.50;43.80;;;;;;4999850;28;20463;-79
2023/05/29 12:10:54;;;;;;;1.63;1.53;;;21.50;43.80;;;;;;5005644;28;20226;-75
2023/05/29 12:13:20;;;;;;;2.70;1.47;;;21.50;43.70;;;;;;5000972;28;20222;-76
2023/05/29 12:15:47;;;;;;;2.00;1.30;;;21.50;43.60;;;;;;5004820;28;20231;-74
2023/05/29 12:18:13;;;;;;;1.53;1.43;;;21.50;43.60;;;;;;5001104;28;20476;-74
2023/05/29 12:20:39;;;;;;;1.70;1.33;;;21.50;43.60;;;;;;5015620;28;20456;-74
2023/05/29 12:23:05;;;;;;;1.60;1.50;;;21.50;43.70;;;;;;5009372;28;20242;-73
2023/05/29 12:25:31;;;;;;;1.90;1.60;;;21.50;43.70;;;;;;5010538;28;20242;-73
2023/05/29 12:27:57;;;;;;;2.50;1.60;;;21.50;43.70;;;;;;5004496;28;20846;-73
2023/05/29 12:30:24;;;;;;;3.33;2.00;;;21.50;43.80;;;;;;5012713;28;21294;-75
2023/05/29 12:32:52;;;;;;;2.73;2.10;;;21.50;43.80;;;;;;5013591;28;20470;-74
2023/05/29 12:35:22;;;;;;;1.50;1.40;;;21.50;43.80;;;;;;5000907;28;21450;-74
2023/05/29 12:38:11;;;;;;;2.00;1.80;;;21.50;43.80;;;;;;5006444;28;20960;-74
2023/05/29 12:40:38;;;;;;;1.77;1.50;;;21.50;43.90;;;;;;5009458;28;20476;-73
2023/05/29 12:43:06;;;;;;;1.70;1.50;;;21.50;44.00;;;;;;4990356;28;20828;-74
2023/05/29 12:45:33;;;;;;;2.23;1.50;;;21.50;43.90;;;;;;5014265;28;20507;-73
2023/05/29 12:48:10;;;;;;;1.50;1.40;;;21.50;44.00;;;;;;4997073;28;20471;-77
2023/05/29 12:50:40;;;;;;;2.40;1.40;;;21.50;44.00;;;;;;4999468;28;21008;-73